Weather History for Newberry, MI

Change the Weather History Date:

Monday, October 28, 2013

  Actual Average Record
Temperature  
Mean Temperature 29 °F -  
Max Temperature 36 °F 48 °F 67 °F (1924)
Min Temperature 22 °F 33 °F 4 °F (1933)
Degree Days  
Heating Degree Days 36    
Moisture  
Dew Point 24 °F    
Average Humidity 76    
Maximum Humidity 95    
Minimum Humidity 55    
Precipitation  
Precipitation 0.00 in - - ()
Sea Level Pressure  
Sea Level Pressure 30.35 in    
Wind  
Wind Speed 7 mph (North)    
Max Wind Speed 13 mph    
Max Gust Speed 21 mph    
Visibility 10 miles    
Events Rain , Snow    
Averages and records for this station are not official NWS values.
T = Trace of Precipitation, MM = Missing Value Source: NWS Daily Summary

Daily Weather History Graph

Daily Weather History Graph

Search for Another Location

Airport:

Trip Planner

Search our weather history database for the weather conditions in past years. The results will help you decide how hot, cold, wet, or windy it might be!

Date:

Astronomy

Oct. 28, 2013 Rise Set
Actual Time 8:17 AM EDT 6:32 PM EDT
Civil Twilight 7:46 AM EDT 7:03 PM EDT
Nautical Twilight 7:11 AM EDT 7:39 PM EDT
Astronomical Twilight 6:36 AM EDT 8:14 PM EDT
Moon 1:50 AM EDT (10/28) 3:32 PM EDT (10/28)
Length of Visible Light 11h 17m
Length of Day
10h 15m
Waning Crescent, 34% of the Moon is Illuminated
Oct 28
Waning Crescent
Nov 3
New
Nov 10
First Quarter
Nov 17
Full
Nov 25
Last Quarter

Hourly Weather History & Observations

Time (EDT) Temp. Windchill Dew Point Humidity Pressure Visibility Wind Dir Wind Speed Gust Speed Precip Events Conditions
12:15 AM 36.9 °F 30.7 °F 34.7 °F 92% 30.02 in 10.0 mi NNW 8.1 mph 17.3 mph N/A   Overcast
12:35 AM 35.6 °F 27.5 °F 33.8 °F 93% 30.03 in 5.0 mi North 11.5 mph 17.3 mph N/A Rain Light Rain
12:55 AM 34.9 °F 29.9 °F 32.9 °F 92% 30.05 in 10.0 mi NNW 5.8 mph - N/A   Light Drizzle
1:15 AM 34.9 °F 29.9 °F 32.0 °F 89% 30.07 in 10.0 mi NNW 5.8 mph - N/A   Overcast
1:35 AM 34.2 °F 25.7 °F 32.2 °F 92% 30.08 in 5.0 mi North 11.5 mph 20.7 mph N/A Snow Light Snow
1:54 AM 33.8 °F 27.0 °F 32.0 °F 93% 30.10 in 10.0 mi NNW 8.1 mph - N/A   Overcast
2:15 AM 33.6 °F 26.2 °F 31.1 °F 90% 30.11 in 10.0 mi North 9.2 mph - N/A   Overcast
2:35 AM 32.0 °F 22.5 °F 30.7 °F 95% 30.13 in 7.0 mi North 12.7 mph 18.4 mph N/A   Mostly Cloudy
2:54 AM 32.0 °F 24.2 °F 29.8 °F 92% 30.14 in 10.0 mi North 9.2 mph 18.4 mph N/A   Mostly Cloudy
3:15 AM 32.0 °F 24.2 °F 29.7 °F 91% 30.16 in 10.0 mi North 9.2 mph - N/A   Overcast
3:35 AM 32.0 °F 24.2 °F 27.1 °F 82% 30.18 in 10.0 mi North 9.2 mph 18.4 mph N/A   Overcast
3:55 AM 30.7 °F 23.3 °F 28.6 °F 92% 30.19 in 4.0 mi North 8.1 mph - N/A Snow Light Snow
4:15 AM 30.6 °F 23.8 °F 28.6 °F 92% 30.20 in 10.0 mi North 6.9 mph - N/A   Overcast
4:35 AM 30.6 °F 23.8 °F 26.2 °F 84% 30.21 in 10.0 mi North 6.9 mph - N/A   Scattered Clouds
4:55 AM 30.2 °F 22.6 °F 23.9 °F 77% 30.22 in 10.0 mi North 8.1 mph - N/A   Scattered Clouds
5:15 AM 29.7 °F 20.1 °F 23.7 °F 79% 30.23 in 10.0 mi North 11.5 mph 16.1 mph N/A   Clear
5:35 AM 29.3 °F 20.2 °F 23.7 °F 80% 30.24 in 10.0 mi North 10.4 mph - N/A   Scattered Clouds
5:55 AM 28.9 °F 19.8 °F 23.7 °F 81% 30.26 in 10.0 mi North 10.4 mph - N/A   Scattered Clouds
6:15 AM 28.6 °F 18.7 °F 23.9 °F 83% 30.26 in 10.0 mi North 11.5 mph - N/A   Clear
6:34 AM 28.2 °F 19.5 °F 23.4 °F 82% 30.28 in 10.0 mi North 9.2 mph - N/A   Clear
6:55 AM 28.4 °F 21.2 °F 23.7 °F 83% 30.29 in 10.0 mi North 6.9 mph - N/A   Scattered Clouds
7:15 AM 28.4 °F 21.2 °F 23.9 °F 83% 30.30 in 10.0 mi North 6.9 mph - N/A   Overcast
7:34 AM 28.2 °F 18.3 °F 23.0 °F 81% 30.31 in 10.0 mi NNE 11.5 mph 17.3 mph N/A   Scattered Clouds
7:55 AM 28.0 °F 20.8 °F 22.6 °F 80% 30.33 in 10.0 mi NNE 6.9 mph - N/A   Mostly Cloudy
8:15 AM 27.9 °F 22.6 °F 22.6 °F 81% 30.34 in 10.0 mi NNE 4.6 mph - N/A   Overcast
8:34 AM 27.5 °F 21.1 °F 22.6 °F 82% 30.35 in 10.0 mi NNE 5.8 mph - N/A   Overcast
8:55 AM 28.4 °F 23.3 °F 23.0 °F 80% 30.36 in 10.0 mi NNE 4.6 mph - N/A   Overcast
9:15 AM 29.3 °F 23.2 °F 23.5 °F 79% 30.38 in 10.0 mi NNE 5.8 mph - N/A   Overcast
9:35 AM 29.8 °F 23.0 °F 22.8 °F 75% 30.38 in 10.0 mi NE 6.9 mph - N/A   Mostly Cloudy
9:55 AM 30.4 °F 22.2 °F 22.8 °F 73% 30.39 in 10.0 mi NE 9.2 mph - N/A   Scattered Clouds
10:15 AM 30.6 °F 24.7 °F 22.5 °F 72% 30.40 in 10.0 mi NNE 5.8 mph - N/A   Clear
10:35 AM 30.9 °F 23.5 °F 22.5 °F 71% 30.41 in 10.0 mi NNE 8.1 mph - N/A   Mostly Cloudy
10:55 AM 31.5 °F 25.8 °F 22.3 °F 69% 30.42 in 10.0 mi NNE 5.8 mph - N/A   Overcast
11:14 AM 32.0 °F 24.8 °F 23.4 °F 70% 30.42 in 10.0 mi North 8.1 mph - N/A   Overcast
11:35 AM 31.8 °F 23.3 °F 22.5 °F 68% 30.42 in 10.0 mi North 10.4 mph - N/A   Mostly Cloudy
11:55 AM 33.4 °F 25.9 °F 22.5 °F 64% 30.43 in 10.0 mi North 9.2 mph - N/A   Mostly Cloudy
12:14 PM 33.8 °F 27.0 °F 22.3 °F 63% 30.43 in 10.0 mi North 8.1 mph - N/A   Scattered Clouds
12:35 PM 33.3 °F 25.7 °F 22.3 °F 64% 30.44 in 10.0 mi North 9.2 mph - N/A   Clear
12:55 PM 34.5 °F 26.7 °F 21.9 °F 60% 30.44 in 10.0 mi NNW 10.4 mph - N/A   Clear
1:14 PM 34.7 °F 28.8 °F 22.3 °F 61% 30.44 in 10.0 mi North 6.9 mph - N/A   Clear
1:35 PM 35.6 °F 29.2 °F 22.6 °F 59% 30.44 in 10.0 mi North 8.1 mph - N/A   Scattered Clouds
1:55 PM 35.6 °F 32.8 °F 21.9 °F 58% 30.44 in 10.0 mi NW 3.5 mph - N/A   Scattered Clouds
2:15 PM 35.8 °F 30.1 °F 21.0 °F 55% 30.44 in 10.0 mi NNW 6.9 mph - N/A   Scattered Clouds
2:35 PM 36.3 °F 29.5 °F 22.3 °F 57% 30.43 in 10.0 mi North 9.2 mph - N/A   Scattered Clouds
2:55 PM 36.3 °F 29.5 °F 21.7 °F 56% 30.43 in 10.0 mi North 9.2 mph - N/A   Scattered Clouds
3:15 PM 35.6 °F 29.2 °F 21.6 °F 57% 30.43 in 10.0 mi North 8.1 mph - N/A   Clear
3:35 PM 36.3 °F 29.5 °F 21.9 °F 56% 30.43 in 10.0 mi North 9.2 mph - N/A   Scattered Clouds
3:54 PM 35.4 °F 29.7 °F 20.7 °F 55% 30.43 in 10.0 mi NNW 6.9 mph - N/A   Scattered Clouds
4:15 PM 36.0 °F 29.0 °F 22.1 °F 57% 30.43 in 10.0 mi North 9.2 mph - N/A   Scattered Clouds
4:35 PM 33.4 °F 27.3 °F 21.6 °F 62% 30.44 in 10.0 mi NNW 6.9 mph - N/A   Scattered Clouds
4:54 PM 34.2 °F 27.5 °F 21.7 °F 60% 30.43 in 10.0 mi NW 8.1 mph - N/A   Scattered Clouds
5:15 PM 34.0 °F 27.2 °F 20.7 °F 58% 30.43 in 10.0 mi North 8.1 mph - N/A   Scattered Clouds
5:35 PM 33.4 °F 27.3 °F 19.6 °F 57% 30.44 in 10.0 mi NNW 6.9 mph - N/A   Scattered Clouds
5:54 PM 32.5 °F 25.5 °F 21.6 °F 64% 30.44 in 10.0 mi NNW 8.1 mph - N/A   Scattered Clouds
6:15 PM 31.3 °F 24.7 °F 21.2 °F 66% 30.44 in 10.0 mi NNW 6.9 mph - N/A   Scattered Clouds
6:35 PM 30.2 °F 25.4 °F 21.2 °F 69% 30.44 in 10.0 mi NNW 4.6 mph - N/A   Clear
6:55 PM 29.3 °F 25.6 °F 21.2 °F 72% 30.45 in 10.0 mi North 3.5 mph - N/A   Clear
7:15 PM 28.8 °F 23.7 °F 21.2 °F 73% 30.46 in 10.0 mi NNW 4.6 mph - N/A   Clear
7:34 PM 28.2 °F 23.1 °F 21.4 °F 76% 30.46 in 10.0 mi NNW 4.6 mph - N/A   Clear
7:55 PM 27.5 °F 23.6 °F 21.2 °F 77% 30.47 in 10.0 mi North 3.5 mph - N/A   Clear
8:15 PM 27.5 °F - 21.2 °F 77% 30.46 in 10.0 mi Calm Calm - N/A   Clear
8:35 PM 27.3 °F - 21.2 °F 78% 30.46 in 10.0 mi Calm Calm - N/A   Clear
8:55 PM 26.1 °F - 21.2 °F 82% 30.46 in 10.0 mi Calm Calm - N/A   Clear
9:14 PM 24.8 °F - 21.7 °F 88% 30.46 in 10.0 mi Calm Calm - N/A   Clear
9:35 PM 24.8 °F - 22.1 °F 89% 30.46 in 10.0 mi Calm Calm - N/A   Scattered Clouds
9:55 PM 25.0 °F - 22.1 °F 89% 30.46 in 10.0 mi Calm Calm - N/A   Mostly Cloudy
10:14 PM 23.9 °F - 20.8 °F 88% 30.46 in 10.0 mi Calm Calm - N/A   Overcast
10:35 PM 23.0 °F - 21.0 °F 92% 30.46 in 10.0 mi Calm Calm - N/A   Overcast
10:55 PM 22.6 °F - 20.5 °F 91% 30.46 in 10.0 mi Calm Calm - N/A   Overcast
11:14 PM 23.5 °F - 21.4 °F 91% 30.47 in 10.0 mi Calm Calm - N/A   Overcast
11:35 PM 24.4 °F - 21.9 °F 90% 30.47 in 10.0 mi Calm Calm - N/A   Overcast
11:54 PM 25.5 °F - 21.7 °F 86% 30.47 in 10.0 mi Calm Calm - N/A   Overcast